createdAt,value
2022-07-29T00:01:04.126Z,100247.72
2022-07-29T00:03:30.678Z,100245.78
2022-07-29T00:05:57.115Z,100229.66
2022-07-29T00:08:23.628Z,100224.63
2022-07-29T00:10:51.261Z,100226.00
2022-07-29T00:13:17.746Z,100205.97
2022-07-29T00:15:44.191Z,100210.97
2022-07-29T00:18:10.782Z,100203.19
2022-07-29T00:20:37.195Z,100200.69
2022-07-29T00:23:06.142Z,100203.72
2022-07-29T00:25:33.893Z,100202.88
2022-07-29T00:28:02.572Z,100204.00
2022-07-29T00:30:31.115Z,100209.59
2022-07-29T00:32:58.939Z,100219.03
2022-07-29T00:35:43.758Z,100222.66
2022-07-29T00:38:13.756Z,100221.25
2022-07-29T00:40:45.985Z,100224.53
2022-07-29T00:43:17.352Z,100229.28
2022-07-29T00:45:44.079Z,100219.78
2022-07-29T00:48:10.745Z,100222.56
2022-07-29T00:50:38.710Z,100223.69
2022-07-29T00:53:07.990Z,100227.25
2022-07-29T00:55:35.652Z,100225.03
2022-07-29T00:58:02.428Z,100228.94
2022-07-29T01:00:30.299Z,100233.56
2022-07-29T01:02:57.025Z,100218.81
2022-07-29T01:05:50.829Z,100219.13
2022-07-29T01:08:19.658Z,100219.59
2022-07-29T01:10:47.584Z,100227.44
2022-07-29T01:13:17.846Z,100224.97
2022-07-29T01:15:56.291Z,100221.88
2022-07-29T01:18:33.106Z,100215.75
2022-07-29T01:21:15.888Z,100211.88
2022-07-29T01:24:08.743Z,100206.03
2022-07-29T01:26:53.361Z,100195.16
2022-07-29T01:29:29.782Z,100204.34
2022-07-29T01:32:27.329Z,100197.97
2022-07-29T01:35:02.037Z,100196.31
2022-07-29T01:37:44.841Z,100200.22
2022-07-29T01:40:24.860Z,100186.50
2022-07-29T01:42:55.985Z,100186.75
2022-07-29T01:45:44.134Z,100191.78
2022-07-29T01:48:24.017Z,100186.22
2022-07-29T01:51:07.213Z,100186.72
2022-07-29T01:53:39.790Z,100185.59
2022-07-29T01:56:09.890Z,100197.84
2022-07-29T01:58:45.167Z,100187.47
2022-07-29T02:01:19.772Z,100199.47
2022-07-29T02:03:47.643Z,100196.41
2022-07-29T02:06:19.145Z,100195.56
2022-07-29T02:08:50.046Z,100193.56
2022-07-29T02:11:17.605Z,100189.63
2022-07-29T02:13:48.325Z,100184.72
2022-07-29T02:16:17.483Z,100188.56
2022-07-29T02:18:47.091Z,100185.78
2022-07-29T02:21:23.849Z,100197.06
2022-07-29T02:23:55.444Z,100191.69
2022-07-29T02:26:24.968Z,100195.50
2022-07-29T02:28:57.426Z,100192.03
2022-07-29T02:31:26.637Z,100188.94
2022-07-29T02:33:54.739Z,100195.28
2022-07-29T02:36:26.975Z,100195.53
2022-07-29T02:38:58.323Z,100200.91
2022-07-29T02:41:31.497Z,100193.16
2022-07-29T02:44:10.687Z,100205.03
2022-07-29T02:46:44.930Z,100205.44
2022-07-29T02:49:33.784Z,100198.94
2022-07-29T02:52:04.992Z,100205.34
2022-07-29T02:54:54.471Z,100204.88
2022-07-29T02:57:54.345Z,100206.47
2022-07-29T03:00:25.110Z,100206.94
2022-07-29T03:02:54.693Z,100214.47
2022-07-29T03:05:23.394Z,100210.97
2022-07-29T03:08:05.505Z,100213.50
2022-07-29T03:10:35.541Z,100198.91
2022-07-29T03:13:05.917Z,100211.47
2022-07-29T03:15:33.271Z,100218.13
2022-07-29T03:18:00.881Z,100212.94
2022-07-29T03:20:27.871Z,100214.03
2022-07-29T03:22:56.488Z,100216.72
2022-07-29T03:25:22.887Z,100224.50
2022-07-29T03:27:49.822Z,100216.81
2022-07-29T03:30:21.684Z,100214.22
2022-07-29T03:32:52.027Z,100198.25
2022-07-29T03:35:22.202Z,100203.22
2022-07-29T03:37:50.923Z,100210.19
2022-07-29T03:40:24.421Z,100204.22
2022-07-29T03:42:55.092Z,100212.53
2022-07-29T03:45:24.898Z,100209.63
2022-07-29T03:48:00.656Z,100212.06
2022-07-29T03:50:31.635Z,100219.28
2022-07-29T03:52:58.683Z,100219.84
2022-07-29T03:55:26.443Z,100236.22
2022-07-29T03:57:53.215Z,100234.03
2022-07-29T04:00:20.451Z,100220.50
2022-07-29T04:02:52.475Z,100216.19
2022-07-29T04:05:19.494Z,100235.81
2022-07-29T04:07:49.223Z,100230.38
2022-07-29T04:10:30.357Z,100223.59
2022-07-29T04:12:59.241Z,100229.03
2022-07-29T04:15:31.457Z,100229.28
2022-07-29T04:18:01.063Z,100239.25
2022-07-29T04:20:30.008Z,100229.63
2022-07-29T04:22:56.543Z,100234.22
2022-07-29T04:25:28.070Z,100246.63
2022-07-29T04:28:04.468Z,100236.91
2022-07-29T04:30:32.555Z,100239.94
2022-07-29T04:32:59.476Z,100242.59
2022-07-29T04:35:29.649Z,100232.66
2022-07-29T04:37:58.244Z,100227.88
2022-07-29T04:40:24.650Z,100234.75
2022-07-29T04:42:51.735Z,100235.72
2022-07-29T04:45:23.164Z,100227.59
2022-07-29T04:47:50.230Z,100235.16
2022-07-29T04:50:16.691Z,100238.97
2022-07-29T04:52:43.358Z,100245.19
2022-07-29T04:55:10.434Z,100234.97
2022-07-29T04:57:39.367Z,100245.63
2022-07-29T05:00:07.714Z,100234.06
2022-07-29T05:02:34.286Z,100235.84
2022-07-29T05:05:01.127Z,100230.16
2022-07-29T05:07:27.602Z,100230.75
2022-07-29T05:09:54.068Z,100242.44
2022-07-29T05:12:20.537Z,100243.13
2022-07-29T05:14:46.936Z,100251.75
2022-07-29T05:17:13.323Z,100250.50
2022-07-29T05:19:39.983Z,100249.47
2022-07-29T05:22:06.520Z,100252.34
2022-07-29T05:24:32.967Z,100249.50
2022-07-29T05:26:59.442Z,100268.28
2022-07-29T05:29:43.664Z,100252.47
2022-07-29T05:32:13.206Z,100250.56
2022-07-29T05:34:50.054Z,100246.88
2022-07-29T05:37:18.720Z,100241.53
2022-07-29T05:39:48.222Z,100266.09
2022-07-29T05:42:15.839Z,100260.16
2022-07-29T05:44:43.576Z,100263.38
2022-07-29T05:47:10.074Z,100261.06
2022-07-29T05:49:39.467Z,100245.75
2022-07-29T05:52:06.523Z,100249.50
2022-07-29T05:54:32.928Z,100263.84
2022-07-29T05:56:59.414Z,100282.78
2022-07-29T05:59:30.092Z,100283.78
2022-07-29T06:01:58.082Z,100267.53
2022-07-29T06:04:24.687Z,100283.69
2022-07-29T06:06:53.584Z,100278.44
2022-07-29T06:09:20.222Z,100268.78
2022-07-29T06:11:47.003Z,100305.25
2022-07-29T06:14:14.558Z,100284.78
2022-07-29T06:16:43.746Z,100300.44
2022-07-29T06:19:10.289Z,100313.88
2022-07-29T06:21:38.674Z,100330.91
2022-07-29T06:24:08.641Z,100332.34
2022-07-29T06:26:39.207Z,100321.53
2022-07-29T06:29:07.371Z,100302.94
2022-07-29T06:31:34.397Z,100342.22
2022-07-29T06:34:05.900Z,100333.31
2022-07-29T06:36:37.721Z,100347.28
2022-07-29T06:39:09.864Z,100335.03
2022-07-29T06:41:38.175Z,100327.50
2022-07-29T06:44:05.574Z,100323.63
2022-07-29T06:46:32.235Z,100314.97
2022-07-29T06:49:02.497Z,100334.47
2022-07-29T06:51:29.398Z,100319.97
2022-07-29T06:53:59.738Z,100333.91
2022-07-29T06:56:38.334Z,100308.81
2022-07-29T06:59:07.966Z,100336.41
2022-07-29T07:01:36.914Z,100349.50
2022-07-29T07:04:03.674Z,100337.78
2022-07-29T07:06:30.352Z,100331.09
2022-07-29T07:08:57.202Z,100335.00
2022-07-29T07:11:23.664Z,100336.13
2022-07-29T07:13:50.217Z,100356.72
2022-07-29T07:16:19.558Z,100356.19
2022-07-29T07:18:46.296Z,100357.84
2022-07-29T07:21:19.050Z,100321.06
2022-07-29T07:23:47.674Z,100347.31
2022-07-29T07:26:14.826Z,100374.31
2022-07-29T07:28:41.290Z,100341.69
2022-07-29T07:31:07.741Z,100344.47
2022-07-29T07:33:34.202Z,100328.91
2022-07-29T07:36:00.728Z,100353.94
2022-07-29T07:38:29.575Z,100355.63
2022-07-29T07:40:56.083Z,100335.47
2022-07-29T07:43:23.555Z,100351.63
2022-07-29T07:45:51.076Z,100347.59
2022-07-29T07:48:19.849Z,100385.56
2022-07-29T07:50:52.083Z,100386.78
2022-07-29T07:53:18.618Z,100357.56
2022-07-29T07:58:36.485Z,100367.53
2022-07-29T08:01:05.524Z,100357.59
2022-07-29T08:03:32.035Z,100390.47
2022-07-29T08:06:00.896Z,100376.84
2022-07-29T08:08:27.303Z,100398.00
2022-07-29T08:10:57.018Z,100377.25
2022-07-29T08:13:28.108Z,100412.31
2022-07-29T08:16:12.994Z,100380.28
2022-07-29T08:18:43.690Z,100379.47
2022-07-29T08:21:10.261Z,100388.44
2022-07-29T08:23:46.180Z,100386.44
2022-07-29T08:26:14.795Z,100410.69
2022-07-29T08:28:46.514Z,100396.63
2022-07-29T08:31:14.060Z,100395.69
2022-07-29T08:33:44.109Z,100388.19
2022-07-29T08:36:10.644Z,100380.75
2022-07-29T08:38:37.071Z,100364.25
2022-07-29T08:41:04.912Z,100389.34
2022-07-29T08:43:31.398Z,100351.94
2022-07-29T08:46:00.275Z,100358.19
2022-07-29T08:48:26.930Z,100332.09
2022-07-29T08:50:57.614Z,100345.31
2022-07-29T08:53:27.684Z,100343.25
2022-07-29T08:55:54.885Z,100353.22
2022-07-29T08:58:22.884Z,100354.47
2022-07-29T09:00:55.318Z,100337.19
2022-07-29T09:03:25.114Z,100381.66
2022-07-29T09:05:52.508Z,100351.97
2022-07-29T09:08:19.603Z,100353.72
2022-07-29T09:10:46.047Z,100383.28
2022-07-29T09:13:15.301Z,100382.44
2022-07-29T09:15:41.938Z,100375.13
2022-07-29T09:18:08.418Z,100346.19
2022-07-29T09:21:11.749Z,100363.50
2022-07-29T09:23:38.209Z,100371.34
2022-07-29T09:26:06.735Z,100371.94
2022-07-29T09:28:33.168Z,100404.28
2022-07-29T09:31:00.252Z,100403.22
2022-07-29T09:33:36.352Z,100436.94
2022-07-29T09:36:08.043Z,100404.88
2022-07-29T09:38:36.178Z,100383.63
2022-07-29T09:41:09.420Z,100485.78
2022-07-29T09:43:35.972Z,100439.66
2022-07-29T09:46:12.939Z,100422.66
2022-07-29T09:48:42.654Z,100389.59
2022-07-29T09:51:23.023Z,100431.75
2022-07-29T09:53:53.705Z,100415.84
2022-07-29T09:56:21.178Z,100427.22
2022-07-29T09:58:47.597Z,100405.91
2022-07-29T10:01:16.695Z,100486.69
2022-07-29T10:03:53.149Z,100420.81
2022-07-29T10:06:19.640Z,100450.09
2022-07-29T10:08:46.812Z,100485.53
2022-07-29T10:11:22.095Z,100486.13
2022-07-29T10:13:49.334Z,100481.50
2022-07-29T10:16:17.499Z,100423.81
2022-07-29T10:18:45.540Z,100478.94
2022-07-29T10:21:34.895Z,100458.28
2022-07-29T10:24:01.214Z,100477.81
2022-07-29T10:26:29.946Z,100471.41
2022-07-29T10:28:56.800Z,100471.44
2022-07-29T10:31:35.706Z,100389.84
2022-07-29T10:34:36.824Z,100411.09
2022-07-29T10:37:47.495Z,100421.50
2022-07-29T10:41:02.251Z,100416.28
2022-07-29T10:43:33.778Z,100441.50
2022-07-29T10:46:01.842Z,100447.50
2022-07-29T10:48:28.472Z,100480.41
2022-07-29T10:51:03.985Z,100488.91
2022-07-29T10:53:50.513Z,100480.84
2022-07-29T10:56:28.371Z,100475.16
2022-07-29T10:59:26.555Z,100442.22
2022-07-29T11:02:27.776Z,100439.00
2022-07-29T11:04:50.335Z,100444.50
2022-07-29T11:07:18.189Z,100443.88
2022-07-29T11:10:04.638Z,100429.06
2022-07-29T11:12:37.233Z,100427.47
2022-07-29T11:15:07.919Z,100472.41
2022-07-29T11:17:53.707Z,100460.66
2022-07-29T11:20:50.038Z,100452.41
2022-07-29T11:23:33.459Z,100428.72
2022-07-29T11:26:26.115Z,100475.34
2022-07-29T11:28:57.334Z,100421.00
2022-07-29T11:31:35.945Z,100446.56
2022-07-29T11:34:21.748Z,100467.75
2022-07-29T11:37:07.812Z,100444.97
2022-07-29T11:39:36.662Z,100452.66
2022-07-29T11:42:30.489Z,100441.19
2022-07-29T11:45:43.003Z,100454.13
2022-07-29T11:48:05.408Z,100469.28
2022-07-29T11:50:46.311Z,100441.00
2022-07-29T11:53:15.305Z,100438.50
2022-07-29T11:55:51.431Z,100427.44
2022-07-29T11:58:26.519Z,100429.63
2022-07-29T12:00:56.225Z,100438.81
2022-07-29T12:03:34.202Z,100429.94
2022-07-29T12:06:13.096Z,100450.41
2022-07-29T12:08:44.347Z,100446.34
2022-07-29T12:11:20.463Z,100433.75
2022-07-29T12:13:50.597Z,100435.72
2022-07-29T12:16:25.766Z,100440.63
2022-07-29T12:19:06.414Z,100434.78
2022-07-29T12:21:56.602Z,100430.00
2022-07-29T12:24:26.581Z,100429.16
2022-07-29T12:26:58.998Z,100428.31
2022-07-29T12:29:34.831Z,100424.66
2022-07-29T12:32:14.466Z,100412.56
2022-07-29T12:34:45.837Z,100419.97
2022-07-29T12:37:12.369Z,100427.16
2022-07-29T12:39:39.813Z,100424.72
2022-07-29T12:42:14.881Z,100404.91
2022-07-29T12:44:52.166Z,100417.34
2022-07-29T12:47:21.141Z,100397.41
2022-07-29T12:49:48.496Z,100445.53
2022-07-29T12:52:34.488Z,100438.31
2022-07-29T12:55:01.776Z,100411.53
2022-07-29T12:57:29.121Z,100411.81
2022-07-29T13:00:12.290Z,100418.09
2022-07-29T13:02:40.121Z,100422.81
2022-07-29T13:05:10.195Z,100390.44
2022-07-29T13:07:54.111Z,100401.69
2022-07-29T13:10:24.623Z,100404.63
2022-07-29T13:13:07.191Z,100390.50
2022-07-29T13:15:34.258Z,100409.19
2022-07-29T13:18:00.786Z,100386.69
2022-07-29T13:20:33.475Z,100379.75
2022-07-29T13:23:05.932Z,100387.75
2022-07-29T13:25:33.235Z,100377.84
2022-07-29T13:28:00.397Z,100362.69
2022-07-29T13:30:26.944Z,100394.31
2022-07-29T13:32:56.471Z,100399.41
2022-07-29T13:35:23.492Z,100390.13
2022-07-29T13:37:49.920Z,100389.59
2022-07-29T13:40:21.240Z,100340.63
2022-07-29T13:42:49.481Z,100360.44
2022-07-29T13:45:16.051Z,100375.91
2022-07-29T13:47:47.455Z,100348.69
2022-07-29T13:50:15.697Z,100328.75
2022-07-29T13:52:42.182Z,100325.41
2022-07-29T13:55:12.056Z,100312.97
2022-07-29T13:57:38.534Z,100323.16
2022-07-29T14:00:05.466Z,100318.19
2022-07-29T14:02:32.091Z,100316.25
2022-07-29T14:05:04.966Z,100318.53
2022-07-29T14:07:34.370Z,100325.69
2022-07-29T14:10:01.275Z,100353.47
2022-07-29T14:12:27.812Z,100340.06
2022-07-29T14:14:54.253Z,100354.78
2022-07-29T14:17:21.142Z,100356.28
2022-07-29T14:19:47.625Z,100364.59
2022-07-29T14:22:14.082Z,100333.72
2022-07-29T14:24:40.692Z,100336.38
2022-07-29T14:27:08.769Z,100341.56
2022-07-29T14:29:38.312Z,100350.72
2022-07-29T14:32:08.056Z,100363.19
2022-07-29T14:34:35.784Z,100377.75
2022-07-29T14:37:03.724Z,100345.22
2022-07-29T14:39:33.004Z,100358.69
2022-07-29T14:42:00.478Z,100352.50
2022-07-29T14:44:32.046Z,100353.63
2022-07-29T14:47:07.822Z,100357.91
2022-07-29T14:49:37.845Z,100381.28
2022-07-29T14:52:06.055Z,100356.44
2022-07-29T14:54:32.584Z,100343.34
2022-07-29T14:57:02.328Z,100332.00
2022-07-29T14:59:28.922Z,100375.38
2022-07-29T15:01:55.417Z,100367.78
2022-07-29T15:04:22.077Z,100370.50
2022-07-29T15:06:49.582Z,100348.25
2022-07-29T15:09:16.195Z,100356.84
2022-07-29T15:11:42.726Z,100394.31
2022-07-29T15:14:09.295Z,100364.25
2022-07-29T15:16:43.450Z,100369.25
2022-07-29T15:19:10.954Z,100365.09
2022-07-29T15:21:48.074Z,100372.69
2022-07-29T15:24:18.926Z,100365.09
2022-07-29T15:26:48.274Z,100355.09
2022-07-29T15:29:15.903Z,100356.47
2022-07-29T15:31:43.066Z,100354.78
2022-07-29T15:34:09.684Z,100383.59
2022-07-29T15:36:51.533Z,100358.75
2022-07-29T15:39:19.560Z,100370.09
2022-07-29T15:41:45.998Z,100383.84
2022-07-29T15:44:12.417Z,100399.66
2022-07-29T15:46:58.039Z,100403.19
2022-07-29T15:49:47.721Z,100405.91
2022-07-29T15:52:24.991Z,100378.44
2022-07-29T15:55:00.523Z,100390.09
2022-07-29T15:57:26.958Z,100362.56
2022-07-29T15:59:53.514Z,100357.59
2022-07-29T16:02:24.772Z,100392.34
2022-07-29T16:04:51.377Z,100362.78
2022-07-29T16:07:20.843Z,100380.50
2022-07-29T16:09:52.853Z,100375.38
2022-07-29T16:12:21.926Z,100367.03
2022-07-29T16:14:49.438Z,100352.31
2022-07-29T16:17:19.127Z,100382.72
2022-07-29T16:19:46.048Z,100370.56
2022-07-29T16:22:13.242Z,100370.13
2022-07-29T16:24:39.783Z,100371.88
2022-07-29T16:27:06.838Z,100367.13
2022-07-29T16:29:33.408Z,100377.78
2022-07-29T16:32:03.802Z,100356.41
2022-07-29T16:34:31.698Z,100339.78
2022-07-29T16:37:00.904Z,100354.56
2022-07-29T16:39:27.569Z,100375.88
2022-07-29T16:41:55.920Z,100362.66
2022-07-29T16:44:28.559Z,100329.53
2022-07-29T16:46:58.847Z,100346.88
2022-07-29T16:49:26.336Z,100369.31
2022-07-29T16:51:55.513Z,100369.53
2022-07-29T16:54:22.095Z,100357.19
2022-07-29T16:56:48.572Z,100370.91
2022-07-29T16:59:15.052Z,100382.44
2022-07-29T17:01:43.886Z,100380.56
2022-07-29T17:04:11.897Z,100380.97
2022-07-29T17:06:40.909Z,100380.44
2022-07-29T17:09:09.935Z,100359.34
2022-07-29T17:11:51.956Z,100357.06
2022-07-29T17:14:24.560Z,100356.84
2022-07-29T17:17:00.685Z,100378.16
2022-07-29T17:19:33.891Z,100377.63
2022-07-29T17:22:09.244Z,100388.53
2022-07-29T17:24:40.229Z,100393.31
2022-07-29T17:27:08.572Z,100377.16
2022-07-29T17:29:38.962Z,100380.38
2022-07-29T17:32:07.734Z,100403.94
2022-07-29T17:34:40.990Z,100393.34
2022-07-29T17:37:09.484Z,100390.03
2022-07-29T17:39:36.878Z,100401.31
2022-07-29T17:42:04.302Z,100383.44
2022-07-29T17:44:36.215Z,100389.66
2022-07-29T17:47:03.814Z,100392.19
2022-07-29T17:49:30.399Z,100407.13
2022-07-29T17:52:00.726Z,100393.72
2022-07-29T17:54:27.871Z,100379.25
2022-07-29T17:56:57.067Z,100394.41
2022-07-29T17:59:23.718Z,100388.34
2022-07-29T18:01:50.222Z,100400.16
2022-07-29T18:04:20.137Z,100417.03
2022-07-29T18:06:47.983Z,100409.25
2022-07-29T18:09:14.415Z,100402.41
2022-07-29T18:11:44.561Z,100416.19
2022-07-29T18:14:15.165Z,100414.31
2022-07-29T18:16:41.615Z,100396.09
2022-07-29T18:19:08.090Z,100392.50
2022-07-29T18:21:42.742Z,100393.47
2022-07-29T18:24:17.780Z,100375.25
2022-07-29T18:26:44.905Z,100372.06
2022-07-29T18:29:12.173Z,100358.66
2022-07-29T18:31:41.055Z,100359.56
2022-07-29T18:34:08.411Z,100386.97
2022-07-29T18:36:34.817Z,100389.81
2022-07-29T18:39:01.216Z,100383.47
2022-07-29T18:41:29.750Z,100379.13
2022-07-29T18:44:03.744Z,100373.56
2022-07-29T18:46:30.818Z,100364.66
2022-07-29T18:48:59.601Z,100364.19
2022-07-29T18:51:28.444Z,100353.41
2022-07-29T18:53:55.187Z,100340.19
2022-07-29T18:56:24.069Z,100341.31
2022-07-29T18:58:50.471Z,100346.06
2022-07-29T19:01:17.031Z,100350.53
2022-07-29T19:03:45.982Z,100352.63
2022-07-29T19:06:14.689Z,100349.38
2022-07-29T19:08:41.762Z,100340.34
2022-07-29T19:11:08.162Z,100331.72
2022-07-29T19:13:34.577Z,100332.91
2022-07-29T19:16:01.182Z,100333.00
2022-07-29T19:18:27.690Z,100329.81
2022-07-29T19:20:54.172Z,100323.69
2022-07-29T19:23:23.421Z,100325.97
2022-07-29T19:25:53.573Z,100320.91
2022-07-29T19:28:20.973Z,100331.81
2022-07-29T19:30:52.465Z,100324.88
2022-07-29T19:33:19.206Z,100334.97
2022-07-29T19:35:52.835Z,100326.38
2022-07-29T19:38:21.203Z,100332.81
2022-07-29T19:40:52.405Z,100330.91
2022-07-29T19:43:50.480Z,100330.38
2022-07-29T19:46:05.832Z,100332.41
2022-07-29T19:48:32.333Z,100338.28
2022-07-29T19:50:58.740Z,100331.88
2022-07-29T19:53:25.164Z,100349.19
2022-07-29T19:55:51.809Z,100352.22
2022-07-29T19:58:18.199Z,100357.78
2022-07-29T20:00:48.858Z,100364.22
2022-07-29T20:03:15.312Z,100373.72
2022-07-29T20:05:42.005Z,100372.63
2022-07-29T20:08:18.027Z,100375.41
2022-07-29T20:10:44.823Z,100377.34
2022-07-29T20:13:14.026Z,100386.84
2022-07-29T20:15:40.613Z,100396.34
2022-07-29T20:18:07.087Z,100400.25
2022-07-29T20:20:33.586Z,100399.72
2022-07-29T20:23:03.959Z,100393.28
2022-07-29T20:25:30.571Z,100393.84
2022-07-29T20:27:56.989Z,100409.44
2022-07-29T20:30:23.582Z,100404.97
2022-07-29T20:32:50.164Z,100406.91
2022-07-29T20:35:17.602Z,100409.94
2022-07-29T20:37:52.253Z,100420.53
2022-07-29T20:40:23.800Z,100413.03
2022-07-29T20:42:50.243Z,100405.22
2022-07-29T20:45:16.746Z,100413.28
2022-07-29T20:47:43.247Z,100419.38
2022-07-29T20:50:10.974Z,100434.41
2022-07-29T20:52:41.328Z,100434.69
2022-07-29T20:55:08.924Z,100444.16
2022-07-29T20:57:39.332Z,100470.59
2022-07-29T21:00:09.862Z,100451.09
2022-07-29T21:02:39.500Z,100456.97
2022-07-29T21:05:06.554Z,100456.97
2022-07-29T21:07:35.574Z,100459.19
2022-07-29T21:10:01.959Z,100474.50
2022-07-29T21:12:29.999Z,100470.88
2022-07-29T21:14:57.699Z,100452.47
2022-07-29T21:17:24.599Z,100469.72
2022-07-29T21:19:55.233Z,100481.63
2022-07-29T21:22:22.309Z,100469.94
2022-07-29T21:24:52.595Z,100480.19
2022-07-29T21:27:38.433Z,100477.06
2022-07-29T21:30:07.170Z,100483.47
2022-07-29T21:32:33.989Z,100480.13
2022-07-29T21:35:00.458Z,100503.19
2022-07-29T21:37:28.180Z,100507.66
2022-07-29T21:39:57.228Z,100497.34
2022-07-29T21:42:23.751Z,100494.19
2022-07-29T21:44:50.920Z,100489.97
2022-07-29T21:47:17.331Z,100496.13
2022-07-29T21:49:44.467Z,100500.84
2022-07-29T21:52:12.932Z,100501.31
2022-07-29T21:54:39.338Z,100493.78
2022-07-29T21:57:24.211Z,100504.91
2022-07-29T22:00:09.599Z,100494.22
2022-07-29T22:02:54.476Z,100487.81
2022-07-29T22:05:42.587Z,100484.72
2022-07-29T22:08:27.636Z,100480.97
2022-07-29T22:11:12.641Z,100501.78
2022-07-29T22:13:57.395Z,100495.09
2022-07-29T22:16:42.207Z,100492.47
2022-07-29T22:19:27.680Z,100500.31
2022-07-29T22:22:14.850Z,100509.59
2022-07-29T22:25:02.544Z,100499.81
2022-07-29T22:27:50.167Z,100510.91
2022-07-29T22:30:35.375Z,100519.53
2022-07-29T22:33:20.320Z,100510.81
2022-07-29T22:36:12.949Z,100525.34
2022-07-29T22:38:58.416Z,100528.91
2022-07-29T22:41:45.912Z,100524.19
2022-07-29T22:44:31.043Z,100517.44
2022-07-29T22:47:16.351Z,100526.88
2022-07-29T22:50:03.917Z,100524.09
2022-07-29T22:52:48.964Z,100526.34
2022-07-29T22:55:15.478Z,100522.41
2022-07-29T22:57:42.184Z,100540.63
2022-07-29T23:00:09.553Z,100534.56
2022-07-29T23:02:37.284Z,100534.56
2022-07-29T23:05:04.642Z,100531.72
2022-07-29T23:07:33.086Z,100534.50
2022-07-29T23:09:59.485Z,100529.31
2022-07-29T23:12:25.945Z,100533.50
2022-07-29T23:14:54.761Z,100528.16
2022-07-29T23:17:23.512Z,100532.53
2022-07-29T23:19:50.059Z,100536.16
2022-07-29T23:22:19.747Z,100543.50
2022-07-29T23:24:46.282Z,100545.97
2022-07-29T23:27:14.820Z,100554.47
2022-07-29T23:29:42.159Z,100537.75
2022-07-29T23:32:11.695Z,100554.56
2022-07-29T23:34:38.286Z,100545.41
2022-07-29T23:37:07.345Z,100577.56
2022-07-29T23:39:36.052Z,100550.81
2022-07-29T23:42:03.689Z,100550.28
2022-07-29T23:44:35.937Z,100544.41
2022-07-29T23:47:05.408Z,100551.66
2022-07-29T23:49:31.803Z,100556.34
2022-07-29T23:51:58.498Z,100547.97
2022-07-29T23:54:24.938Z,100562.28
2022-07-29T23:56:51.415Z,100550.16
2022-07-29T23:59:20.146Z,100556.22
